createdAt,value
2023-03-22T00:01:32.621Z,6.85
2023-03-22T00:04:00.489Z,7.43
2023-03-22T00:06:28.206Z,7.88
2023-03-22T00:08:56.217Z,8.18
2023-03-22T00:11:25.736Z,8.80
2023-03-22T00:13:53.765Z,8.25
2023-03-22T00:16:22.087Z,8.35
2023-03-22T00:18:51.095Z,9.50
2023-03-22T00:21:19.015Z,7.80
2023-03-22T00:23:46.938Z,8.27
2023-03-22T00:26:15.141Z,7.15
2023-03-22T00:28:43.199Z,7.30
2023-03-22T00:31:11.682Z,9.02
2023-03-22T00:33:39.374Z,8.07
2023-03-22T00:36:09.559Z,8.68
2023-03-22T00:38:43.825Z,7.82
2023-03-22T00:41:13.475Z,7.90
2023-03-22T00:43:41.410Z,8.15
2023-03-22T00:46:09.507Z,7.68
2023-03-22T00:48:37.229Z,6.93
2023-03-22T00:51:05.209Z,8.38
2023-03-22T00:53:35.398Z,8.48
2023-03-22T00:56:03.375Z,7.15
2023-03-22T00:58:31.005Z,8.73
2023-03-22T01:00:58.723Z,8.40
2023-03-22T01:03:26.552Z,8.48
2023-03-22T01:05:55.503Z,6.50
2023-03-22T01:08:23.520Z,7.00
2023-03-22T01:10:52.628Z,7.05
2023-03-22T01:13:20.368Z,6.55
2023-03-22T01:15:50.879Z,7.75
2023-03-22T01:18:18.613Z,6.63
2023-03-22T01:20:46.512Z,6.63
2023-03-22T01:23:14.171Z,7.10
2023-03-22T01:25:41.948Z,7.15
2023-03-22T01:28:11.089Z,7.68
2023-03-22T01:30:39.970Z,7.03
2023-03-22T01:33:07.961Z,6.95
2023-03-22T01:35:36.204Z,6.22
2023-03-22T01:38:04.038Z,7.00
2023-03-22T01:40:31.699Z,6.53
2023-03-22T01:42:59.376Z,6.88
2023-03-22T01:45:45.967Z,7.03
2023-03-22T01:48:16.705Z,6.82
2023-03-22T01:50:46.875Z,6.03
2023-03-22T01:53:15.271Z,5.30
2023-03-22T01:55:43.389Z,5.55
2023-03-22T01:58:11.135Z,6.05
2023-03-22T02:00:39.092Z,6.25
2023-03-22T02:03:08.220Z,4.72
2023-03-22T02:05:37.027Z,5.28
2023-03-22T02:08:05.226Z,4.72
2023-03-22T02:10:32.895Z,4.13
2023-03-22T02:13:15.719Z,3.80
2023-03-22T02:15:47.087Z,4.50
2023-03-22T02:18:29.681Z,3.60
2023-03-22T02:21:10.078Z,5.22
2023-03-22T02:23:55.431Z,4.05
2023-03-22T02:26:42.017Z,3.60
2023-03-22T02:29:13.962Z,4.03
2023-03-22T02:31:51.016Z,3.20
2023-03-22T02:34:33.717Z,3.28
2023-03-22T02:37:08.638Z,3.47
2023-03-22T02:39:39.750Z,3.72
2023-03-22T02:42:25.105Z,3.55
2023-03-22T02:44:56.573Z,3.35
2023-03-22T02:47:25.424Z,3.60
2023-03-22T02:49:56.168Z,3.25
2023-03-22T02:52:26.787Z,2.88
2023-03-22T02:54:57.808Z,3.60
2023-03-22T02:57:29.331Z,3.08
2023-03-22T02:59:57.999Z,2.92
2023-03-22T03:02:27.793Z,2.97
2023-03-22T03:04:56.863Z,3.28
2023-03-22T03:07:28.106Z,2.58
2023-03-22T03:09:57.421Z,2.85
2023-03-22T03:12:25.967Z,3.90
2023-03-22T03:14:53.839Z,2.42
2023-03-22T03:17:26.869Z,2.42
2023-03-22T03:20:00.795Z,3.03
2023-03-22T03:22:35.731Z,2.17
2023-03-22T03:25:07.252Z,2.05
2023-03-22T03:27:37.626Z,2.50
2023-03-22T03:30:10.072Z,2.30
2023-03-22T03:32:42.374Z,2.20
2023-03-22T03:35:18.005Z,2.38
2023-03-22T03:37:47.886Z,2.58
2023-03-22T03:40:19.120Z,2.28
2023-03-22T03:42:50.281Z,2.10
2023-03-22T03:45:18.366Z,2.95
2023-03-22T03:47:47.561Z,2.22
2023-03-22T03:50:17.335Z,2.35
2023-03-22T03:52:44.949Z,1.98
2023-03-22T03:55:13.028Z,2.30
2023-03-22T03:57:42.025Z,2.30
2023-03-22T04:00:10.694Z,1.98
2023-03-22T04:02:38.370Z,2.25
2023-03-22T04:05:07.429Z,2.63
2023-03-22T04:07:35.331Z,2.40
2023-03-22T04:10:03.944Z,1.80
2023-03-22T04:12:31.709Z,1.63
2023-03-22T04:15:00.794Z,2.70
2023-03-22T04:17:32.085Z,1.92
2023-03-22T04:19:59.723Z,1.83
2023-03-22T04:22:27.422Z,1.77
2023-03-22T04:25:02.058Z,2.03
2023-03-22T04:27:29.698Z,2.33
2023-03-22T04:29:58.098Z,1.48
2023-03-22T04:32:27.450Z,2.30
2023-03-22T04:34:55.077Z,1.55
2023-03-22T04:37:24.557Z,1.60
2023-03-22T04:39:52.325Z,1.60
2023-03-22T04:42:20.767Z,1.13
2023-03-22T04:44:50.996Z,1.55
2023-03-22T04:47:19.117Z,1.50
2023-03-22T04:49:48.166Z,1.88
2023-03-22T04:52:16.019Z,1.58
2023-03-22T04:54:43.827Z,1.92
2023-03-22T04:57:13.008Z,1.45
2023-03-22T04:59:40.671Z,1.33
2023-03-22T05:02:08.375Z,1.80
2023-03-22T05:04:36.105Z,1.80
2023-03-22T05:07:05.622Z,2.08
2023-03-22T05:09:33.501Z,1.85
2023-03-22T05:12:01.157Z,1.13
2023-03-22T05:14:28.819Z,1.92
2023-03-22T05:16:56.568Z,1.40
2023-03-22T05:19:31.602Z,1.45
2023-03-22T05:22:01.944Z,1.65
2023-03-22T05:24:31.719Z,2.17
2023-03-22T05:27:01.033Z,2.03
2023-03-22T05:29:29.195Z,2.13
2023-03-22T05:31:56.863Z,2.50
2023-03-22T05:34:25.216Z,1.65
2023-03-22T05:36:52.882Z,1.95
2023-03-22T05:39:23.424Z,1.30
2023-03-22T05:41:52.466Z,1.58
2023-03-22T05:44:20.306Z,2.53
2023-03-22T05:46:47.976Z,1.63
2023-03-22T05:49:15.741Z,1.33
2023-03-22T05:51:43.667Z,1.85
2023-03-22T05:54:11.861Z,1.88
2023-03-22T05:56:39.880Z,1.77
2023-03-22T05:59:08.915Z,1.42
2023-03-22T06:01:36.627Z,1.90
2023-03-22T06:04:04.730Z,1.73
2023-03-22T06:06:32.529Z,2.25
2023-03-22T06:09:10.714Z,1.92
2023-03-22T06:11:43.998Z,1.60
2023-03-22T06:14:13.106Z,1.60
2023-03-22T06:16:41.047Z,1.75
2023-03-22T06:19:09.790Z,1.90
2023-03-22T06:21:37.618Z,1.90
2023-03-22T06:24:05.562Z,1.40
2023-03-22T06:26:33.204Z,2.08
2023-03-22T06:29:03.288Z,1.40
2023-03-22T06:31:32.533Z,1.70
2023-03-22T06:34:00.407Z,1.45
2023-03-22T06:36:28.083Z,1.70
2023-03-22T06:38:55.933Z,2.28
2023-03-22T06:41:23.612Z,1.80
2023-03-22T06:43:51.279Z,2.08
2023-03-22T06:46:19.028Z,1.58
2023-03-22T06:48:48.150Z,1.90
2023-03-22T06:51:16.160Z,1.65
2023-03-22T06:53:43.949Z,2.00
2023-03-22T06:56:12.025Z,1.45
2023-03-22T06:58:39.642Z,1.63
2023-03-22T07:01:07.468Z,1.40
2023-03-22T07:03:35.721Z,1.98
2023-03-22T07:06:05.453Z,1.73
2023-03-22T07:08:33.100Z,2.05
2023-03-22T07:11:01.253Z,1.70
2023-03-22T07:13:28.987Z,1.77
2023-03-22T07:15:57.607Z,1.27
2023-03-22T07:18:25.554Z,1.98
2023-03-22T07:20:53.353Z,1.23
2023-03-22T07:23:22.529Z,1.70
2023-03-22T07:25:50.349Z,1.90
2023-03-22T07:28:18.058Z,1.52
2023-03-22T07:30:45.700Z,1.42
2023-03-22T07:33:13.484Z,1.65
2023-03-22T07:35:41.206Z,2.00
2023-03-22T07:38:08.972Z,1.63
2023-03-22T07:40:39.154Z,1.30
2023-03-22T07:43:07.006Z,2.83
2023-03-22T07:45:34.676Z,1.42
2023-03-22T07:48:02.485Z,1.50
2023-03-22T07:50:30.254Z,2.05
2023-03-22T07:52:57.884Z,2.03
2023-03-22T07:55:25.686Z,1.60
2023-03-22T07:57:55.020Z,1.38
2023-03-22T08:00:23.106Z,1.60
2023-03-22T08:02:50.873Z,1.52
2023-03-22T08:05:18.858Z,1.70
2023-03-22T08:07:47.061Z,1.35
2023-03-22T08:10:14.746Z,1.63
2023-03-22T08:12:43.453Z,1.80
2023-03-22T08:15:12.901Z,2.28
2023-03-22T08:17:42.991Z,1.73
2023-03-22T08:20:12.440Z,1.30
2023-03-22T08:22:40.076Z,1.70
2023-03-22T08:25:08.757Z,2.10
2023-03-22T08:27:36.375Z,1.88
2023-03-22T08:30:05.762Z,1.38
2023-03-22T08:32:35.808Z,2.10
2023-03-22T08:35:05.729Z,1.90
2023-03-22T08:37:33.579Z,2.78
2023-03-22T08:40:01.336Z,1.65
2023-03-22T08:42:29.091Z,1.52
2023-03-22T08:44:56.730Z,1.40
2023-03-22T08:47:24.384Z,1.35
2023-03-22T08:49:53.658Z,1.98
2023-03-22T08:52:21.813Z,1.65
2023-03-22T08:54:51.639Z,2.38
2023-03-22T08:57:19.297Z,1.48
2023-03-22T08:59:46.960Z,1.75
2023-03-22T09:02:15.088Z,1.35
2023-03-22T09:04:42.881Z,1.98
2023-03-22T09:07:12.587Z,1.77
2023-03-22T09:09:40.711Z,1.63
2023-03-22T09:12:08.726Z,2.00
2023-03-22T09:14:36.609Z,1.75
2023-03-22T09:17:06.275Z,1.27
2023-03-22T09:19:37.023Z,1.45
2023-03-22T09:22:04.916Z,1.23
2023-03-22T09:24:33.973Z,1.55
2023-03-22T09:27:01.790Z,1.63
2023-03-22T09:29:29.887Z,1.50
2023-03-22T09:31:57.547Z,1.15
2023-03-22T09:34:25.727Z,1.25
2023-03-22T09:36:53.421Z,1.55
2023-03-22T09:39:22.765Z,1.10
2023-03-22T09:41:55.504Z,1.42
2023-03-22T09:44:26.119Z,2.00
2023-03-22T09:46:54.979Z,1.50
2023-03-22T09:49:26.205Z,1.70
2023-03-22T09:51:54.503Z,1.42
2023-03-22T09:54:33.716Z,1.30
2023-03-22T09:57:05.162Z,2.08
2023-03-22T09:59:35.838Z,1.38
2023-03-22T10:02:05.685Z,1.95
2023-03-22T10:04:45.370Z,1.77
2023-03-22T10:07:20.444Z,1.48
2023-03-22T10:09:54.921Z,1.80
2023-03-22T10:12:26.911Z,1.60
2023-03-22T10:15:00.855Z,1.50
2023-03-22T10:17:29.602Z,2.42
2023-03-22T10:19:58.980Z,1.65
2023-03-22T10:22:32.011Z,1.55
2023-03-22T10:25:00.977Z,1.90
2023-03-22T10:27:31.600Z,1.95
2023-03-22T10:30:02.320Z,1.65
2023-03-22T10:32:32.938Z,1.83
2023-03-22T10:35:00.776Z,1.58
2023-03-22T10:37:32.169Z,1.63
2023-03-22T10:40:00.969Z,1.90
2023-03-22T10:42:31.162Z,1.92
2023-03-22T10:45:00.005Z,2.38
2023-03-22T10:47:30.878Z,2.20
2023-03-22T10:49:59.695Z,2.03
2023-03-22T10:52:34.812Z,1.55
2023-03-22T10:55:04.651Z,2.28
2023-03-22T10:57:34.361Z,1.65
2023-03-22T11:00:07.846Z,2.38
2023-03-22T11:02:35.740Z,1.75
2023-03-22T11:05:04.747Z,1.70
2023-03-22T11:07:34.083Z,2.40
2023-03-22T11:10:16.611Z,1.63
2023-03-22T11:12:48.294Z,1.90
2023-03-22T11:15:21.503Z,2.70
2023-03-22T11:17:49.474Z,1.85
2023-03-22T11:20:17.859Z,2.35
2023-03-22T11:22:47.044Z,1.77
2023-03-22T11:25:15.976Z,1.58
2023-03-22T11:27:52.057Z,2.10
2023-03-22T11:30:21.234Z,2.55
2023-03-22T11:32:49.583Z,1.80
2023-03-22T11:35:22.155Z,2.03
2023-03-22T11:37:50.449Z,2.47
2023-03-22T11:40:19.055Z,2.05
2023-03-22T11:42:47.125Z,1.98
2023-03-22T11:45:17.748Z,2.08
2023-03-22T11:47:45.669Z,1.55
2023-03-22T11:50:26.807Z,2.03
2023-03-22T11:52:54.578Z,1.83
2023-03-22T11:55:22.338Z,2.40
2023-03-22T11:57:50.337Z,2.45
2023-03-22T12:00:21.590Z,2.08
2023-03-22T12:02:53.632Z,1.65
2023-03-22T12:05:24.249Z,1.67
2023-03-22T12:07:53.463Z,2.33
2023-03-22T12:10:23.998Z,2.08
2023-03-22T12:13:03.076Z,2.15
2023-03-22T12:15:34.589Z,2.13
2023-03-22T12:18:07.968Z,2.03
2023-03-22T12:20:39.767Z,2.45
2023-03-22T12:23:14.117Z,1.92
2023-03-22T12:25:56.794Z,2.33
2023-03-22T12:28:27.951Z,1.95
2023-03-22T12:30:58.676Z,2.47
2023-03-22T12:33:28.152Z,3.15
2023-03-22T12:35:57.911Z,2.17
2023-03-22T12:38:29.910Z,3.08
2023-03-22T12:41:01.367Z,2.85
2023-03-22T12:43:37.674Z,2.70
2023-03-22T12:46:07.297Z,2.55
2023-03-22T12:48:37.557Z,1.95
2023-03-22T12:51:06.561Z,2.25
2023-03-22T12:53:37.451Z,1.98
2023-03-22T12:56:05.306Z,2.42
2023-03-22T12:58:33.095Z,2.30
2023-03-22T13:01:02.946Z,2.15
2023-03-22T13:03:38.634Z,2.38
2023-03-22T13:06:07.748Z,2.80
2023-03-22T13:08:54.152Z,2.47
2023-03-22T13:11:24.755Z,2.92
2023-03-22T13:13:53.425Z,2.40
2023-03-22T13:16:24.784Z,2.60
2023-03-22T13:19:01.847Z,2.85
2023-03-22T13:21:30.807Z,2.50
2023-03-22T13:24:01.697Z,2.25
2023-03-22T13:26:33.749Z,2.53
2023-03-22T13:29:03.254Z,3.17
2023-03-22T13:31:34.558Z,3.10
2023-03-22T13:34:04.240Z,2.60
2023-03-22T13:36:33.063Z,2.67
2023-03-22T13:39:02.959Z,2.55
2023-03-22T13:41:31.710Z,3.05
2023-03-22T13:44:04.379Z,2.63
2023-03-22T13:46:47.886Z,2.92
2023-03-22T13:49:24.479Z,3.15
2023-03-22T13:51:52.654Z,2.42
2023-03-22T13:54:24.022Z,3.17
2023-03-22T13:56:56.089Z,3.58
2023-03-22T13:59:25.572Z,3.38
2023-03-22T14:01:54.387Z,3.38
2023-03-22T14:04:26.371Z,3.55
2023-03-22T14:06:57.386Z,2.88
2023-03-22T14:09:28.088Z,3.42
2023-03-22T14:11:58.007Z,3.80
2023-03-22T14:14:28.719Z,3.13
2023-03-22T14:17:00.932Z,3.40
2023-03-22T14:19:31.755Z,3.33
